createdAt,value
2019-01-18T00:00:35.719Z,90.97
2019-01-18T00:01:35.708Z,91.18
2019-01-18T00:02:35.732Z,91.60
2019-01-18T00:03:35.690Z,91.81
2019-01-18T00:04:35.675Z,91.39
2019-01-18T00:05:35.666Z,91.18
2019-01-18T00:06:35.654Z,91.50
2019-01-18T00:07:35.663Z,91.29
2019-01-18T00:08:35.655Z,91.08
2019-01-18T00:09:35.641Z,90.35
2019-01-18T00:10:35.607Z,90.03
2019-01-18T00:11:35.602Z,89.83
2019-01-18T00:12:35.585Z,89.83
2019-01-18T00:13:35.603Z,89.62
2019-01-18T00:14:35.564Z,90.03
2019-01-18T00:15:35.559Z,90.77
2019-01-18T00:16:35.542Z,90.87
2019-01-18T00:17:35.530Z,91.08
2019-01-18T00:18:35.549Z,90.97
2019-01-18T00:19:35.511Z,91.18
2019-01-18T00:20:35.532Z,91.08
2019-01-18T00:21:35.508Z,91.18
2019-01-18T00:22:35.480Z,91.50
2019-01-18T00:23:35.466Z,91.39
2019-01-18T00:24:35.492Z,91.18
2019-01-18T00:25:35.443Z,91.60
2019-01-18T00:26:35.466Z,91.81
2019-01-18T00:27:35.422Z,91.60
2019-01-18T00:28:35.430Z,91.18
2019-01-18T00:29:35.403Z,91.18
2019-01-18T00:30:35.413Z,91.08
2019-01-18T00:31:35.401Z,90.97
2019-01-18T00:32:35.376Z,90.77
2019-01-18T00:33:35.390Z,91.54
2019-01-18T00:34:35.346Z,91.18
2019-01-18T00:35:35.333Z,91.81
2019-01-18T00:36:35.329Z,91.75
2019-01-18T00:37:35.313Z,91.60
2019-01-18T00:38:35.326Z,91.50
2019-01-18T00:39:35.292Z,92.02
2019-01-18T00:40:35.300Z,92.16
2019-01-18T00:41:35.293Z,91.91
2019-01-18T00:42:35.257Z,91.96
2019-01-18T00:43:35.250Z,91.81
2019-01-18T00:44:35.247Z,91.08
2019-01-18T00:45:35.242Z,91.85
2019-01-18T00:46:35.213Z,91.64
2019-01-18T00:47:35.205Z,91.43
2019-01-18T00:48:35.218Z,91.60
2019-01-18T00:49:35.183Z,91.75
2019-01-18T00:50:35.207Z,91.43
2019-01-18T00:51:35.160Z,91.12
2019-01-18T00:52:35.149Z,91.64
2019-01-18T00:53:35.164Z,91.12
2019-01-18T00:54:35.127Z,91.75
2019-01-18T00:55:35.115Z,91.64
2019-01-18T00:56:35.126Z,91.64
2019-01-18T00:57:35.095Z,91.54
2019-01-18T00:58:35.083Z,91.64
2019-01-18T00:59:36.402Z,91.64
2019-01-18T01:00:35.062Z,92.16
2019-01-18T01:01:35.050Z,91.96
2019-01-18T01:02:35.069Z,92.27
2019-01-18T01:03:35.054Z,91.96
2019-01-18T01:04:35.018Z,92.16
2019-01-18T01:05:35.006Z,91.75
2019-01-18T01:06:34.995Z,91.43
2019-01-18T01:07:34.988Z,91.75
2019-01-18T01:08:35.010Z,92.16
2019-01-18T01:09:34.989Z,91.96
2019-01-18T01:10:34.962Z,91.96
2019-01-18T01:11:34.965Z,91.75
2019-01-18T01:12:34.931Z,91.64
2019-01-18T01:13:34.944Z,91.75
2019-01-18T01:14:34.912Z,91.54
2019-01-18T01:15:34.905Z,91.12
2019-01-18T01:16:34.888Z,91.75
2019-01-18T01:17:34.893Z,91.54
2019-01-18T01:18:34.866Z,91.64
2019-01-18T01:19:34.884Z,91.43
2019-01-18T01:20:34.842Z,91.75
2019-01-18T01:21:34.837Z,91.22
2019-01-18T01:22:34.827Z,91.54
2019-01-18T01:23:34.809Z,90.18
2019-01-18T01:24:34.831Z,90.18
2019-01-18T01:25:34.789Z,90.45
2019-01-18T01:26:34.808Z,90.45
2019-01-18T01:27:34.769Z,90.60
2019-01-18T01:28:34.760Z,90.39
2019-01-18T01:29:34.747Z,90.14
2019-01-18T01:30:34.735Z,90.18
2019-01-18T01:31:34.750Z,91.33
2019-01-18T01:32:34.746Z,91.22
2019-01-18T01:33:34.701Z,91.96
2019-01-18T01:34:34.720Z,91.33
2019-01-18T01:35:34.681Z,91.75
2019-01-18T01:36:34.670Z,91.85
2019-01-18T01:37:34.682Z,91.85
2019-01-18T01:38:34.647Z,91.54
2019-01-18T01:39:34.635Z,91.02
2019-01-18T01:40:34.662Z,91.33
2019-01-18T01:41:34.614Z,91.54
2019-01-18T01:42:34.602Z,91.33
2019-01-18T01:43:34.614Z,91.75
2019-01-18T01:44:34.581Z,91.22
2019-01-18T01:45:34.570Z,91.64
2019-01-18T01:46:34.563Z,91.85
2019-01-18T01:47:34.575Z,91.33
2019-01-18T01:48:34.542Z,91.33
2019-01-18T01:49:34.526Z,91.12
2019-01-18T01:50:34.517Z,91.75
2019-01-18T01:51:34.520Z,91.54
2019-01-18T01:52:34.555Z,90.50
2019-01-18T01:53:34.483Z,91.43
2019-01-18T01:54:34.471Z,90.39
2019-01-18T01:55:34.493Z,90.18
2019-01-18T01:56:34.476Z,90.08
2019-01-18T01:57:34.449Z,90.18
2019-01-18T01:58:34.458Z,90.18
2019-01-18T01:59:34.418Z,90.18
2019-01-18T02:00:34.434Z,90.81
2019-01-18T02:01:34.397Z,91.79
2019-01-18T02:02:34.385Z,91.72
2019-01-18T02:03:34.375Z,91.10
2019-01-18T02:04:34.390Z,91.41
2019-01-18T02:05:34.412Z,90.78
2019-01-18T02:06:34.340Z,90.06
2019-01-18T02:07:34.333Z,90.37
2019-01-18T02:08:34.321Z,89.89
2019-01-18T02:09:34.308Z,89.68
2019-01-18T02:10:34.342Z,89.15
2019-01-18T02:11:34.306Z,89.26
2019-01-18T02:12:34.275Z,89.58
2019-01-18T02:13:34.266Z,89.47
2019-01-18T02:14:34.255Z,89.47
2019-01-18T02:15:34.279Z,89.47
2019-01-18T02:16:34.232Z,89.89
2019-01-18T02:17:34.238Z,90.31
2019-01-18T02:18:34.210Z,88.21
2019-01-18T02:19:34.198Z,88.01
2019-01-18T02:20:34.215Z,87.27
2019-01-18T02:21:34.178Z,86.75
2019-01-18T02:22:34.197Z,86.75
2019-01-18T02:23:34.160Z,85.91
2019-01-18T02:24:34.143Z,86.85
2019-01-18T02:25:34.135Z,86.75
2019-01-18T02:26:34.144Z,86.75
2019-01-18T02:27:34.113Z,86.54
2019-01-18T02:28:34.102Z,86.96
2019-01-18T02:29:34.106Z,86.23
2019-01-18T02:30:34.079Z,86.54
2019-01-18T02:31:34.092Z,86.16
2019-01-18T02:32:34.066Z,86.16
2019-01-18T02:33:34.087Z,86.13
2019-01-18T02:34:34.033Z,86.13
2019-01-18T02:35:34.023Z,86.16
2019-01-18T02:36:34.011Z,85.96
2019-01-18T02:37:34.027Z,85.53
2019-01-18T02:38:34.023Z,85.74
2019-01-18T02:39:34.022Z,84.87
2019-01-18T02:40:33.970Z,86.16
2019-01-18T02:41:33.957Z,84.91
2019-01-18T02:42:33.967Z,85.12
2019-01-18T02:43:33.964Z,85.33
2019-01-18T02:44:33.953Z,85.08
2019-01-18T02:45:33.914Z,85.50
2019-01-18T02:46:33.903Z,84.45
2019-01-18T02:47:33.899Z,84.70
2019-01-18T02:48:33.900Z,85.39
2019-01-18T02:49:33.905Z,85.01
2019-01-18T02:50:33.862Z,84.39
2019-01-18T02:51:33.847Z,84.39
2019-01-18T02:52:33.834Z,83.72
2019-01-18T02:53:33.863Z,84.24
2019-01-18T02:54:33.814Z,83.97
2019-01-18T02:55:33.813Z,84.34
2019-01-18T02:56:33.798Z,84.49
2019-01-18T02:57:33.780Z,84.59
2019-01-18T02:58:33.817Z,84.07
2019-01-18T02:59:33.759Z,84.07
2019-01-18T03:00:33.755Z,83.76
2019-01-18T03:01:33.752Z,82.19
2019-01-18T03:02:33.730Z,82.09
2019-01-18T03:03:33.740Z,82.29
2019-01-18T03:04:33.704Z,79.99
2019-01-18T03:05:33.693Z,80.10
2019-01-18T03:06:33.683Z,80.90
2019-01-18T03:07:33.681Z,80.52
2019-01-18T03:08:33.684Z,80.31
2019-01-18T03:09:33.651Z,80.10
2019-01-18T03:10:33.662Z,79.99
2019-01-18T03:11:33.627Z,79.89
2019-01-18T03:12:33.617Z,79.99
2019-01-18T03:13:33.643Z,79.47
2019-01-18T03:14:33.602Z,79.05
2019-01-18T03:15:33.584Z,79.99
2019-01-18T03:16:33.577Z,80.31
2019-01-18T03:17:33.562Z,79.89
2019-01-18T03:18:33.577Z,79.16
2019-01-18T03:19:33.539Z,79.50
2019-01-18T03:20:33.537Z,79.68
2019-01-18T03:21:33.544Z,80.35
2019-01-18T03:22:33.506Z,79.40
2019-01-18T03:23:33.497Z,79.19
2019-01-18T03:24:33.519Z,79.93
2019-01-18T03:25:33.475Z,80.03
2019-01-18T03:26:33.470Z,79.82
2019-01-18T03:27:33.456Z,80.35
2019-01-18T03:28:33.444Z,81.18
2019-01-18T03:29:33.469Z,80.80
2019-01-18T03:30:33.424Z,80.80
2019-01-18T03:31:33.418Z,80.45
2019-01-18T03:32:33.478Z,80.69
2019-01-18T03:33:33.391Z,81.67
2019-01-18T03:34:33.405Z,81.63
2019-01-18T03:35:33.369Z,81.67
2019-01-18T03:36:33.355Z,80.83
2019-01-18T03:37:33.347Z,81.67
2019-01-18T03:38:33.362Z,82.30
2019-01-18T03:39:33.327Z,81.67
2019-01-18T03:40:33.312Z,82.09
2019-01-18T03:41:33.300Z,81.67
2019-01-18T03:42:33.290Z,81.15
2019-01-18T03:43:33.297Z,81.67
2019-01-18T03:44:33.298Z,81.78
2019-01-18T03:45:33.264Z,81.26
2019-01-18T03:46:33.251Z,81.99
2019-01-18T03:47:33.237Z,81.78
2019-01-18T03:48:33.233Z,82.30
2019-01-18T03:49:33.236Z,81.99
2019-01-18T03:50:33.202Z,81.99
2019-01-18T03:51:33.205Z,82.20
2019-01-18T03:52:33.205Z,82.51
2019-01-18T03:53:33.194Z,82.09
2019-01-18T03:54:33.184Z,82.30
2019-01-18T03:55:33.153Z,82.20
2019-01-18T03:56:33.138Z,82.93
2019-01-18T03:57:33.157Z,83.59
2019-01-18T03:58:33.119Z,83.18
2019-01-18T03:59:33.105Z,83.39
2019-01-18T04:00:33.124Z,83.39
2019-01-18T04:01:33.093Z,84.44
2019-01-18T04:02:33.072Z,83.95
2019-01-18T04:03:33.061Z,84.79
2019-01-18T04:04:33.067Z,84.16
2019-01-18T04:05:33.063Z,84.58
2019-01-18T04:06:33.050Z,84.58
2019-01-18T04:07:33.015Z,84.37
2019-01-18T04:08:33.004Z,84.68
2019-01-18T04:09:33.003Z,85.03
2019-01-18T04:10:33.022Z,85.66
2019-01-18T04:11:33.016Z,85.46
2019-01-18T04:12:32.969Z,85.31
2019-01-18T04:13:32.989Z,85.94
2019-01-18T04:14:32.946Z,85.52
2019-01-18T04:15:32.947Z,84.58
2019-01-18T04:16:32.917Z,84.44
2019-01-18T04:17:32.906Z,84.64
2019-01-18T04:18:32.922Z,83.91
2019-01-18T04:19:32.891Z,84.47
2019-01-18T04:20:32.874Z,84.47
2019-01-18T04:21:32.864Z,84.79
2019-01-18T04:22:32.880Z,84.89
2019-01-18T04:23:32.846Z,83.22
2019-01-18T04:24:32.840Z,83.39
2019-01-18T04:25:32.826Z,84.54
2019-01-18T04:26:32.810Z,83.95
2019-01-18T04:27:32.823Z,84.47
2019-01-18T04:28:32.820Z,84.09
2019-01-18T04:29:32.776Z,84.79
2019-01-18T04:30:33.534Z,84.93
2019-01-18T04:31:32.757Z,84.93
2019-01-18T04:32:32.742Z,84.83
2019-01-18T04:33:32.757Z,85.60
2019-01-18T04:34:32.741Z,85.77
2019-01-18T04:35:32.733Z,85.81
2019-01-18T04:36:32.699Z,86.65
2019-01-18T04:37:32.709Z,86.23
2019-01-18T04:38:32.679Z,86.23
2019-01-18T04:39:32.689Z,86.58
2019-01-18T04:40:32.656Z,86.47
2019-01-18T04:41:32.645Z,87.21
2019-01-18T04:42:32.632Z,86.58
2019-01-18T04:43:32.641Z,87.52
2019-01-18T04:44:32.635Z,87.74
2019-01-18T04:45:32.605Z,87.59
2019-01-18T04:46:32.593Z,87.32
2019-01-18T04:47:32.580Z,87.63
2019-01-18T04:48:32.572Z,87.70
2019-01-18T04:49:32.594Z,87.42
2019-01-18T04:50:32.576Z,87.49
2019-01-18T04:51:32.548Z,87.17
2019-01-18T04:52:32.524Z,87.17
2019-01-18T04:53:32.514Z,87.80
2019-01-18T04:54:32.505Z,88.05
2019-01-18T04:55:32.499Z,87.91
2019-01-18T04:56:32.515Z,86.54
2019-01-18T04:57:32.470Z,86.96
2019-01-18T04:58:32.459Z,86.44
2019-01-18T04:59:32.449Z,85.60
2019-01-18T05:00:32.468Z,85.03
2019-01-18T05:01:32.427Z,84.83
2019-01-18T05:02:32.422Z,85.03
2019-01-18T05:03:32.403Z,85.03
2019-01-18T05:04:32.391Z,85.03
2019-01-18T05:05:32.397Z,85.03
2019-01-18T05:06:32.399Z,85.03
2019-01-18T05:07:32.385Z,84.72
2019-01-18T05:08:32.373Z,85.14
2019-01-18T05:09:32.370Z,85.88
2019-01-18T05:10:32.326Z,85.88
2019-01-18T05:11:32.315Z,85.88
2019-01-18T05:12:32.304Z,85.25
2019-01-18T05:13:32.293Z,86.40
2019-01-18T05:14:32.307Z,85.14
2019-01-18T05:15:32.286Z,85.98
2019-01-18T05:16:32.285Z,85.77
2019-01-18T05:17:32.253Z,86.08
2019-01-18T05:18:32.241Z,85.35
2019-01-18T05:19:32.261Z,84.72
2019-01-18T05:20:32.244Z,84.62
2019-01-18T05:21:32.212Z,84.16
2019-01-18T05:22:32.210Z,84.89
2019-01-18T05:23:32.192Z,84.16
2019-01-18T05:24:32.173Z,83.53
2019-01-18T05:25:32.188Z,83.64
2019-01-18T05:26:32.154Z,83.01
2019-01-18T05:27:32.153Z,83.74
2019-01-18T05:28:32.166Z,85.00
2019-01-18T05:29:32.123Z,84.27
2019-01-18T05:30:32.125Z,84.89
2019-01-18T05:31:32.096Z,84.93
2019-01-18T05:32:32.087Z,84.83
2019-01-18T05:33:32.078Z,84.83
2019-01-18T05:34:32.093Z,84.83
2019-01-18T05:35:32.056Z,84.79
2019-01-18T05:36:32.045Z,85.14
2019-01-18T05:37:32.035Z,85.25
2019-01-18T05:38:32.050Z,85.35
2019-01-18T05:39:32.011Z,85.66
2019-01-18T05:40:32.008Z,86.02
2019-01-18T05:41:31.987Z,85.88
2019-01-18T05:42:31.976Z,85.77
2019-01-18T05:43:31.988Z,85.91
2019-01-18T05:44:32.029Z,85.22
2019-01-18T05:45:31.998Z,86.37
2019-01-18T05:46:31.937Z,85.85
2019-01-18T05:47:31.936Z,86.27
2019-01-18T05:48:31.912Z,86.37
2019-01-18T05:49:31.903Z,86.72
2019-01-18T05:50:31.916Z,87.29
2019-01-18T05:51:31.883Z,86.98
2019-01-18T05:52:32.589Z,87.71
2019-01-18T05:53:31.858Z,87.60
2019-01-18T05:54:31.855Z,87.54
2019-01-18T05:55:31.858Z,87.96
2019-01-18T05:56:31.829Z,88.80
2019-01-18T05:57:31.813Z,88.70
2019-01-18T05:58:31.808Z,89.54
2019-01-18T05:59:31.791Z,89.75
2019-01-18T06:00:31.814Z,89.54
2019-01-18T06:01:31.794Z,89.96
2019-01-18T06:02:31.765Z,89.86
2019-01-18T06:03:31.747Z,90.38
2019-01-18T06:04:31.741Z,90.38
2019-01-18T06:05:31.726Z,90.80
2019-01-18T06:06:31.747Z,91.22
2019-01-18T06:07:31.709Z,91.58
2019-01-18T06:08:31.720Z,92.00
2019-01-18T06:09:31.685Z,91.96
2019-01-18T06:10:31.672Z,92.06
2019-01-18T06:11:31.674Z,91.96
2019-01-18T06:12:31.682Z,91.85
2019-01-18T06:13:31.654Z,91.74
2019-01-18T06:14:31.628Z,92.06
2019-01-18T06:15:31.619Z,92.48
2019-01-18T06:16:31.608Z,92.38
2019-01-18T06:17:31.613Z,91.58
2019-01-18T06:18:31.608Z,92.31
2019-01-18T06:19:31.598Z,91.89
2019-01-18T06:20:31.563Z,92.31
2019-01-18T06:21:31.553Z,92.63
2019-01-18T06:22:31.566Z,92.84
2019-01-18T06:23:31.532Z,92.63
2019-01-18T06:24:31.521Z,92.42
2019-01-18T06:25:31.522Z,92.52
2019-01-18T06:26:31.501Z,92.52
2019-01-18T06:27:31.520Z,92.21
2019-01-18T06:28:31.479Z,92.63
2019-01-18T06:29:31.465Z,92.73
2019-01-18T06:30:31.478Z,92.77
2019-01-18T06:31:31.452Z,92.73
2019-01-18T06:32:31.434Z,92.73
2019-01-18T06:33:31.425Z,92.84
2019-01-18T06:34:31.435Z,93.30
2019-01-18T06:35:31.402Z,93.26
2019-01-18T06:36:31.405Z,93.62
2019-01-18T06:37:31.401Z,93.62
2019-01-18T06:38:31.374Z,93.62
2019-01-18T06:39:31.358Z,93.83
2019-01-18T06:40:31.372Z,93.30
2019-01-18T06:41:31.336Z,93.72
2019-01-18T06:42:31.326Z,93.55
2019-01-18T06:43:31.314Z,94.04
2019-01-18T06:44:31.317Z,93.93
2019-01-18T06:45:31.315Z,94.04
2019-01-18T06:46:31.283Z,94.56
2019-01-18T06:47:31.271Z,94.56
2019-01-18T06:48:31.262Z,94.78
2019-01-18T06:49:31.252Z,94.88
2019-01-18T06:50:31.274Z,94.35
2019-01-18T06:51:31.401Z,94.35
2019-01-18T06:52:31.303Z,94.56
2019-01-18T06:53:31.208Z,94.88
2019-01-18T06:54:31.262Z,94.88
2019-01-18T06:55:31.223Z,94.78
2019-01-18T06:56:32.519Z,94.78
2019-01-18T06:57:31.177Z,94.88
2019-01-18T06:58:31.153Z,94.67
2019-01-18T06:59:31.169Z,94.56
2019-01-18T07:00:31.132Z,94.67
2019-01-18T07:01:31.120Z,94.88
2019-01-18T07:02:31.110Z,94.98
2019-01-18T07:03:31.106Z,95.09
2019-01-18T07:04:31.112Z,95.09
2019-01-18T07:05:31.082Z,94.98
2019-01-18T07:06:31.066Z,94.98
2019-01-18T07:07:31.084Z,94.88
2019-01-18T07:08:31.045Z,95.24
2019-01-18T07:09:31.047Z,94.78
2019-01-18T07:10:31.055Z,94.56
2019-01-18T07:11:31.019Z,94.56
2019-01-18T07:12:31.006Z,94.88
2019-01-18T07:13:30.992Z,94.67
2019-01-18T07:14:30.981Z,94.35
2019-01-18T07:15:31.016Z,94.71
2019-01-18T07:16:30.960Z,94.50
2019-01-18T07:17:30.949Z,94.92
2019-01-18T07:18:30.938Z,95.13
2019-01-18T07:19:30.928Z,95.03
2019-01-18T07:20:30.941Z,95.03
2019-01-18T07:21:30.912Z,94.96
2019-01-18T07:22:30.904Z,94.92
2019-01-18T07:23:30.907Z,94.65
2019-01-18T07:24:30.875Z,94.96
2019-01-18T07:25:30.874Z,94.86
2019-01-18T07:26:30.853Z,95.24
2019-01-18T07:27:30.840Z,95.45
2019-01-18T07:28:30.872Z,95.49
2019-01-18T07:29:30.819Z,95.28
2019-01-18T07:30:30.814Z,95.18
2019-01-18T07:31:30.810Z,95.49
2019-01-18T07:32:30.793Z,95.91
2019-01-18T07:33:30.778Z,95.49
2019-01-18T07:34:30.805Z,95.70
2019-01-18T07:35:30.772Z,95.60
2019-01-18T07:36:30.748Z,95.81
2019-01-18T07:37:30.735Z,95.28
2019-01-18T07:38:30.750Z,95.03
2019-01-18T07:39:30.711Z,95.45
2019-01-18T07:40:30.732Z,95.70
2019-01-18T07:41:30.696Z,95.28
2019-01-18T07:42:30.686Z,95.34
2019-01-18T07:43:30.695Z,95.97
2019-01-18T07:44:30.658Z,96.19
2019-01-18T07:45:30.648Z,96.14
2019-01-18T07:46:30.651Z,96.03
2019-01-18T07:47:30.627Z,96.03
2019-01-18T07:48:30.647Z,96.14
2019-01-18T07:49:30.605Z,96.14
2019-01-18T07:50:30.597Z,95.40
2019-01-18T07:51:30.582Z,95.40
2019-01-18T07:52:30.575Z,95.62
2019-01-18T07:53:30.600Z,95.30
2019-01-18T07:54:30.551Z,95.83
2019-01-18T07:55:30.542Z,95.51
2019-01-18T07:56:30.551Z,95.51
2019-01-18T07:57:30.522Z,95.62
2019-01-18T07:58:30.528Z,95.51
2019-01-18T07:59:30.529Z,95.40
2019-01-18T08:00:30.489Z,95.57
2019-01-18T08:01:30.476Z,95.51
2019-01-18T08:02:30.481Z,95.62
2019-01-18T08:03:30.478Z,95.30
2019-01-18T08:04:30.443Z,95.93
2019-01-18T08:05:30.433Z,95.20
2019-01-18T08:06:30.435Z,95.30
2019-01-18T08:07:30.410Z,95.72
2019-01-18T08:08:30.423Z,95.72
2019-01-18T08:09:30.391Z,95.30
2019-01-18T08:10:30.380Z,95.40
2019-01-18T08:11:30.392Z,95.30
2019-01-18T08:12:30.397Z,95.30
2019-01-18T08:13:30.370Z,95.72
2019-01-18T08:14:30.339Z,95.93
2019-01-18T08:15:30.323Z,96.10
2019-01-18T08:16:30.313Z,95.99
2019-01-18T08:17:30.327Z,95.99
2019-01-18T08:18:30.305Z,96.16
2019-01-18T08:19:30.314Z,95.99
2019-01-18T08:20:30.270Z,95.89
2019-01-18T08:21:30.282Z,95.47
2019-01-18T08:22:30.256Z,95.47
2019-01-18T08:23:30.241Z,95.47
2019-01-18T08:24:30.245Z,95.78
2019-01-18T08:25:30.218Z,95.15
2019-01-18T08:26:30.236Z,95.36
2019-01-18T08:27:30.195Z,95.57
2019-01-18T08:28:30.194Z,95.36
2019-01-18T08:29:30.173Z,95.04
2019-01-18T08:30:30.202Z,95.36
2019-01-18T08:31:30.178Z,95.36
2019-01-18T08:32:30.143Z,95.04
2019-01-18T08:33:30.128Z,94.62
2019-01-18T08:34:30.134Z,94.73
2019-01-18T08:35:30.109Z,95.04
2019-01-18T08:36:30.162Z,95.32
2019-01-18T08:37:30.087Z,95.10
2019-01-18T08:38:30.075Z,95.32
2019-01-18T08:39:30.067Z,95.21
2019-01-18T08:40:30.055Z,95.32
2019-01-18T08:41:30.066Z,95.21
2019-01-18T08:42:30.058Z,95.21
2019-01-18T08:43:30.046Z,95.32
2019-01-18T08:44:30.010Z,95.10
2019-01-18T08:45:30.001Z,95.32
2019-01-18T08:46:29.993Z,94.96
2019-01-18T08:47:29.978Z,94.43
2019-01-18T08:48:30.016Z,94.54
2019-01-18T08:49:29.976Z,94.85
2019-01-18T08:50:29.945Z,94.81
2019-01-18T08:51:29.933Z,94.54
2019-01-18T08:52:29.946Z,94.43
2019-01-18T08:53:29.949Z,94.49
2019-01-18T08:54:29.926Z,94.33
2019-01-18T08:55:29.922Z,94.39
2019-01-18T08:56:29.884Z,94.49
2019-01-18T08:57:29.869Z,94.77
2019-01-18T08:58:29.885Z,94.08
2019-01-18T08:59:29.874Z,93.93
2019-01-18T09:00:29.840Z,93.30
2019-01-18T09:01:35.758Z,92.99
2019-01-18T09:02:30.815Z,93.47
2019-01-18T09:03:29.833Z,92.38
2019-01-18T09:04:29.801Z,91.22
2019-01-18T09:05:29.786Z,90.66
2019-01-18T09:06:29.782Z,90.13
2019-01-18T09:07:29.761Z,89.36
2019-01-18T09:08:29.770Z,89.98
2019-01-18T09:09:29.762Z,89.67
2019-01-18T09:10:29.735Z,89.78
2019-01-18T09:11:29.718Z,89.25
2019-01-18T09:12:29.711Z,89.36
2019-01-18T09:13:29.696Z,89.67
2019-01-18T09:14:29.710Z,89.63
2019-01-18T09:15:29.674Z,87.96
2019-01-18T09:16:29.669Z,87.96
2019-01-18T09:17:29.652Z,88.02
2019-01-18T09:18:29.644Z,88.12
2019-01-18T09:19:29.680Z,88.17
2019-01-18T09:20:29.635Z,88.02
2019-01-18T09:21:29.631Z,86.91
2019-01-18T09:22:29.595Z,86.77
2019-01-18T09:23:29.593Z,87.18
2019-01-18T09:24:29.604Z,86.66
2019-01-18T09:25:29.567Z,87.18
2019-01-18T09:26:29.553Z,86.98
2019-01-18T09:27:29.542Z,86.93
2019-01-18T09:28:29.537Z,86.31
2019-01-18T09:29:29.544Z,86.27
2019-01-18T09:30:29.509Z,85.96
2019-01-18T09:31:29.502Z,85.74
2019-01-18T09:32:29.488Z,84.80
2019-01-18T09:33:29.499Z,83.97
2019-01-18T09:34:29.478Z,84.28
2019-01-18T09:35:29.480Z,84.59
2019-01-18T09:36:29.447Z,85.64
2019-01-18T09:37:29.442Z,85.74
2019-01-18T09:38:29.422Z,85.12
2019-01-18T09:39:29.415Z,84.49
2019-01-18T09:40:29.423Z,85.33
2019-01-18T09:41:29.417Z,84.59
2019-01-18T09:42:29.377Z,84.34
2019-01-18T09:43:29.373Z,84.45
2019-01-18T09:44:29.358Z,84.34
2019-01-18T09:45:29.350Z,84.56
2019-01-18T09:46:29.357Z,84.66
2019-01-18T09:47:29.324Z,84.45
2019-01-18T09:48:29.312Z,85.56
2019-01-18T09:49:29.332Z,82.22
2019-01-18T09:50:29.289Z,82.53
2019-01-18T09:51:29.282Z,83.20
2019-01-18T09:52:29.268Z,81.73
2019-01-18T09:53:29.288Z,81.84
2019-01-18T09:54:29.245Z,81.73
2019-01-18T09:55:29.239Z,81.73
2019-01-18T09:56:29.243Z,81.90
2019-01-18T09:57:29.216Z,82.43
2019-01-18T09:58:29.270Z,82.53
2019-01-18T09:59:29.235Z,83.01
2019-01-18T10:00:29.180Z,83.23
2019-01-18T10:01:29.176Z,82.91
2019-01-18T10:02:29.158Z,82.18
2019-01-18T10:03:29.151Z,81.66
2019-01-18T10:04:29.160Z,81.76
2019-01-18T10:05:29.126Z,80.82
2019-01-18T10:06:29.115Z,80.93
2019-01-18T10:07:29.108Z,81.56
2019-01-18T10:08:29.098Z,80.30
2019-01-18T10:09:29.239Z,80.30
2019-01-18T10:10:29.072Z,80.68
2019-01-18T10:11:29.061Z,80.82
2019-01-18T10:12:29.050Z,79.85
2019-01-18T10:13:29.045Z,80.05
2019-01-18T10:14:29.056Z,79.64
2019-01-18T10:15:29.018Z,78.70
2019-01-18T10:16:29.006Z,76.72
2019-01-18T10:17:28.997Z,77.51
2019-01-18T10:18:29.007Z,77.31
2019-01-18T10:19:29.000Z,77.34
2019-01-18T10:20:28.972Z,78.25
2019-01-18T10:21:28.950Z,79.39
2019-01-18T10:22:28.970Z,79.91
2019-01-18T10:23:28.946Z,79.36
2019-01-18T10:24:28.918Z,79.60
2019-01-18T10:25:28.918Z,79.36
2019-01-18T10:26:28.897Z,79.67
2019-01-18T10:27:28.886Z,78.11
2019-01-18T10:28:28.907Z,77.90
2019-01-18T10:29:28.863Z,78.31
2019-01-18T10:30:28.875Z,77.76
2019-01-18T10:31:28.852Z,78.17
2019-01-18T10:32:28.832Z,76.20
2019-01-18T10:33:28.821Z,77.31
2019-01-18T10:34:28.825Z,76.16
2019-01-18T10:35:28.799Z,75.95
2019-01-18T10:36:28.787Z,74.60
2019-01-18T10:37:28.783Z,76.12
2019-01-18T10:38:28.767Z,76.86
2019-01-18T10:39:28.780Z,76.40
2019-01-18T10:40:28.760Z,77.23
2019-01-18T10:41:28.731Z,75.57
2019-01-18T10:42:28.841Z,74.70
2019-01-18T10:43:28.720Z,75.01
2019-01-18T10:44:28.708Z,74.66
2019-01-18T10:45:28.687Z,76.02
2019-01-18T10:46:28.681Z,75.09
2019-01-18T10:47:28.665Z,74.66
2019-01-18T10:48:28.680Z,75.29
2019-01-18T10:49:28.658Z,76.33
2019-01-18T10:50:28.633Z,75.15
2019-01-18T10:51:28.638Z,73.80
2019-01-18T10:52:28.611Z,73.38
2019-01-18T10:53:28.598Z,74.53
2019-01-18T10:54:28.642Z,74.32
2019-01-18T10:55:28.582Z,73.90
2019-01-18T10:56:28.566Z,72.58
2019-01-18T10:57:28.554Z,73.00
2019-01-18T10:58:28.543Z,73.28
2019-01-18T10:59:28.550Z,72.48
2019-01-18T11:00:28.543Z,72.09
2019-01-18T11:01:28.517Z,73.42
2019-01-18T11:02:28.500Z,73.63
2019-01-18T11:03:28.489Z,73.00
2019-01-18T11:04:28.477Z,73.83
2019-01-18T11:05:28.484Z,74.04
2019-01-18T11:06:28.477Z,74.95
2019-01-18T11:07:28.452Z,74.70
2019-01-18T11:08:28.433Z,74.49
2019-01-18T11:09:28.422Z,70.89
2019-01-18T11:10:28.412Z,70.57
2019-01-18T11:11:28.424Z,70.61
2019-01-18T11:12:28.718Z,71.82
2019-01-18T11:13:28.385Z,71.92
2019-01-18T11:14:28.367Z,73.66
2019-01-18T11:15:28.358Z,72.10
2019-01-18T11:16:28.369Z,72.66
2019-01-18T11:17:28.333Z,72.93
2019-01-18T11:18:28.349Z,72.62
2019-01-18T11:19:28.339Z,72.62
2019-01-18T11:20:28.326Z,72.28
2019-01-18T11:21:28.290Z,72.20
2019-01-18T11:22:28.285Z,70.51
2019-01-18T11:23:28.299Z,71.27
2019-01-18T11:24:28.257Z,71.03
2019-01-18T11:25:31.848Z,70.43
2019-01-18T11:26:28.257Z,69.19
2019-01-18T11:27:28.229Z,72.00
2019-01-18T11:28:28.233Z,71.34
2019-01-18T11:29:28.200Z,73.11
2019-01-18T11:30:28.193Z,72.28
2019-01-18T11:31:28.198Z,69.47
2019-01-18T11:32:28.195Z,71.44
2019-01-18T11:33:28.173Z,72.86
2019-01-18T11:34:28.145Z,72.45
2019-01-18T11:35:28.133Z,71.93
2019-01-18T11:36:28.123Z,71.59
2019-01-18T11:37:28.155Z,69.82
2019-01-18T11:38:28.119Z,67.88
2019-01-18T11:39:28.118Z,69.43
2019-01-18T11:40:28.079Z,70.68
2019-01-18T11:41:28.068Z,71.17
2019-01-18T11:42:28.057Z,71.28
2019-01-18T11:43:28.082Z,70.65
2019-01-18T11:44:28.053Z,70.23
2019-01-18T11:45:28.023Z,68.37
2019-01-18T11:46:28.013Z,69.30
2019-01-18T11:47:28.432Z,68.37
2019-01-18T11:48:27.992Z,66.71
2019-01-18T11:49:27.990Z,69.30
2019-01-18T11:50:27.969Z,68.16
2019-01-18T11:51:27.960Z,68.60
2019-01-18T11:52:27.979Z,68.40
2019-01-18T11:53:27.935Z,68.50
2019-01-18T11:54:27.944Z,70.03
2019-01-18T11:55:27.922Z,69.71
2019-01-18T11:56:27.924Z,69.61
2019-01-18T11:57:27.891Z,69.40
2019-01-18T11:58:27.905Z,71.03
2019-01-18T11:59:27.869Z,70.31
2019-01-18T12:00:27.859Z,69.58
2019-01-18T12:01:27.864Z,67.43
2019-01-18T12:02:27.838Z,68.78
2019-01-18T12:03:27.851Z,68.78
2019-01-18T12:04:27.814Z,69.30
2019-01-18T12:05:27.802Z,65.69
2019-01-18T12:06:27.796Z,66.74
2019-01-18T12:07:27.797Z,68.60
2019-01-18T12:08:27.796Z,68.29
2019-01-18T12:09:27.758Z,67.77
2019-01-18T12:10:27.750Z,66.63
2019-01-18T12:11:27.736Z,67.74
2019-01-18T12:12:28.268Z,66.60
2019-01-18T12:13:27.751Z,66.60
2019-01-18T12:14:27.743Z,67.43
2019-01-18T12:15:27.693Z,68.26
2019-01-18T12:16:27.681Z,67.22
2019-01-18T12:17:27.700Z,67.64
2019-01-18T12:18:27.661Z,68.54
2019-01-18T12:19:27.671Z,68.33
2019-01-18T12:20:27.638Z,67.27
2019-01-18T12:21:27.626Z,66.64
2019-01-18T12:22:27.642Z,65.63
2019-01-18T12:23:27.602Z,68.54
2019-01-18T12:24:27.595Z,68.30
2019-01-18T12:25:27.594Z,69.24
2019-01-18T12:26:27.608Z,65.60
2019-01-18T12:27:27.559Z,68.30
2019-01-18T12:28:27.547Z,68.41
2019-01-18T12:29:27.546Z,67.55
2019-01-18T12:30:27.527Z,68.41
2019-01-18T12:31:27.554Z,67.58
2019-01-18T12:32:28.839Z,67.16
2019-01-18T12:33:27.494Z,68.30
2019-01-18T12:34:27.482Z,68.10
2019-01-18T12:35:27.473Z,68.27
2019-01-18T12:36:27.486Z,66.41
2019-01-18T12:37:27.458Z,66.93
2019-01-18T12:38:27.438Z,66.51
2019-01-18T12:39:27.428Z,67.65
2019-01-18T12:40:27.417Z,69.31
2019-01-18T12:41:27.432Z,67.65
2019-01-18T12:42:27.397Z,67.06
2019-01-18T12:43:27.383Z,68.07
2019-01-18T12:44:27.372Z,68.48
2019-01-18T12:45:27.361Z,66.64
2019-01-18T12:46:27.374Z,67.16
2019-01-18T12:47:27.338Z,67.27
2019-01-18T12:48:27.326Z,67.68
2019-01-18T12:49:27.324Z,67.37
2019-01-18T12:50:27.329Z,67.68
2019-01-18T12:51:27.294Z,69.34
2019-01-18T12:52:27.290Z,67.55